Enter the Airport ICAO Code

Search by Airport or City

Current Weather

SUMU | Carrasco Gral. Cesáreo L. Berisso International Airport

Montevideo, Uruguay

Last Update 17 Minutes Ago

Clear Sky

Temperature of 10 ºC

Light to Moderate Winds from SouthEast

Temperature

10 ºC

Dew Point Temperature

06 ºC

Relative Humidity

76.25 %

Wind Direction

SouthEast (150º, Without Significant Variations)

Wind Velocity

13 km/h (07 kt)

Gusts

None

Visibility

No Significant Reductions

Sea Level Pressure

1027 hPa (Hectopascals)

Layers of Clouds

None

METAR SUMU 191200Z 15007KT CAVOK 10/06 Q1027 NOSIG

Weather Forecast

SUMU | Carrasco Gral. Cesáreo L. Berisso International Airport

Montevideo, Uruguay

Forecast valid for the next 24 Hours

From now on it is expected:

Mostly Cloudy Sky

Light to Moderate Winds from South

In 6 hours it is expected the begining of 6 hours with intermittent periods of:

Drizzle

In 16 hours it is expected the begining of 7 hours with intermittent periods of:

Mist

Maximum Temperature

12 ºC in 6 Hours

Minimum Temperature

05 ºC in 22 Hours

TAF SUMU 191115Z 1912/2012 16008KT 9999 FEW023 BKN070 TX12/1918Z TN05/2010Z PROB30 TEMPO 1918/2000 5000 RADZ BKN010 PROB40 TEMPO 2004/2011 2000 BR BKN005